sensor_id;sensor_type;location;lat;lon;timestamp;pressure;altitude;pressure_sealevel;temperature;humidity
21203;BME280;10759;51.982;9.232;2023-04-23T00:00:08;99464.16;;;15.97;100.00
21203;BME280;10759;51.982;9.232;2023-04-23T00:02:39;99468.09;;;15.93;100.00
21203;BME280;10759;51.982;9.232;2023-04-23T00:05:11;99430.53;;;15.77;98.12
21203;BME280;10759;51.982;9.232;2023-04-23T00:07:41;99461.31;;;15.87;98.11
21203;BME280;10759;51.982;9.232;2023-04-23T00:10:10;99466.75;;;15.99;95.33
21203;BME280;10759;51.982;9.232;2023-04-23T00:12:40;99463.97;;;16.00;93.94
21203;BME280;10759;51.982;9.232;2023-04-23T00:15:10;99438.03;;;15.98;91.02
21203;BME280;10759;51.982;9.232;2023-04-23T00:17:38;99428.34;;;15.82;89.55
21203;BME280;10759;51.982;9.232;2023-04-23T00:20:07;99457.34;;;15.80;88.73
21203;BME280;10759;51.982;9.232;2023-04-23T00:22:36;99466.41;;;15.79;88.25
21203;BME280;10759;51.982;9.232;2023-04-23T00:25:04;99466.03;;;15.73;88.61
21203;BME280;10759;51.982;9.232;2023-04-23T00:27:32;99470.44;;;15.74;89.55
21203;BME280;10759;51.982;9.232;2023-04-23T00:30:01;99466.16;;;15.82;89.28
21203;BME280;10759;51.982;9.232;2023-04-23T00:32:29;99470.44;;;15.74;89.87
21203;BME280;10759;51.982;9.232;2023-04-23T00:34:57;99473.94;;;15.87;90.59
21203;BME280;10759;51.982;9.232;2023-04-23T00:37:25;99451.63;;;15.59;91.85
21203;BME280;10759;51.982;9.232;2023-04-23T00:39:53;99473.75;;;15.64;92.71
21203;BME280;10759;51.982;9.232;2023-04-23T00:42:21;99476.69;;;15.61;93.81
21203;BME280;10759;51.982;9.232;2023-04-23T00:44:49;99442.56;;;15.23;95.37
21203;BME280;10759;51.982;9.232;2023-04-23T00:47:19;99469.25;;;15.52;95.94
21203;BME280;10759;51.982;9.232;2023-04-23T00:49:48;99472.25;;;15.23;98.19
21203;BME280;10759;51.982;9.232;2023-04-23T00:52:18;99462.19;;;15.25;98.58
21203;BME280;10759;51.982;9.232;2023-04-23T00:54:46;99460.59;;;14.97;99.46
21203;BME280;10759;51.982;9.232;2023-04-23T00:57:14;99476.53;;;15.13;98.44
21203;BME280;10759;51.982;9.232;2023-04-23T00:59:42;99474.41;;;14.93;99.58
21203;BME280;10759;51.982;9.232;2023-04-23T01:02:10;99475.16;;;14.95;98.92
21203;BME280;10759;51.982;9.232;2023-04-23T01:04:42;99474.94;;;14.85;98.74
21203;BME280;10759;51.982;9.232;2023-04-23T01:07:10;99466.75;;;14.87;99.15
21203;BME280;10759;51.982;9.232;2023-04-23T01:09:42;99457.91;;;14.85;98.56
21203;BME280;10759;51.982;9.232;2023-04-23T01:12:10;99463.50;;;14.81;99.45
21203;BME280;10759;51.982;9.232;2023-04-23T01:14:40;99457.38;;;14.79;100.00
21203;BME280;10759;51.982;9.232;2023-04-23T01:17:09;99463.94;;;14.75;100.00
21203;BME280;10759;51.982;9.232;2023-04-23T01:19:39;99445.28;;;14.59;100.00
21203;BME280;10759;51.982;9.232;2023-04-23T01:22:10;99475.38;;;15.05;99.46
21203;BME280;10759;51.982;9.232;2023-04-23T01:24:38;99471.69;;;15.06;98.98
21203;BME280;10759;51.982;9.232;2023-04-23T01:27:09;99470.09;;;14.90;100.00
21203;BME280;10759;51.982;9.232;2023-04-23T01:29:38;99431.81;;;14.72;98.89
21203;BME280;10759;51.982;9.232;2023-04-23T01:32:06;99470.41;;;14.73;100.00
21203;BME280;10759;51.982;9.232;2023-04-23T01:34:37;99468.03;;;14.68;100.00
21203;BME280;10759;51.982;9.232;2023-04-23T01:37:06;99475.03;;;14.71;100.00
21203;BME280;10759;51.982;9.232;2023-04-23T01:39:35;99478.06;;;14.39;100.00
21203;BME280;10759;51.982;9.232;2023-04-23T01:42:04;99462.91;;;14.51;100.00
21203;BME280;10759;51.982;9.232;2023-04-23T01:44:33;99407.44;;;14.08;100.00
21203;BME280;10759;51.982;9.232;2023-04-23T01:47:01;99470.59;;;14.57;100.00
21203;BME280;10759;51.982;9.232;2023-04-23T01:49:32;99477.16;;;14.53;100.00
21203;BME280;10759;51.982;9.232;2023-04-23T01:52:00;99430.53;;;14.25;100.00
21203;BME280;10759;51.982;9.232;2023-04-23T01:54:28;99470.41;;;14.60;100.00
21203;BME280;10759;51.982;9.232;2023-04-23T01:56:57;99482.38;;;14.69;100.00
21203;BME280;10759;51.982;9.232;2023-04-23T01:59:25;99479.88;;;14.66;100.00
21203;BME280;10759;51.982;9.232;2023-04-23T02:01:53;99457.09;;;14.57;100.00
21203;BME280;10759;51.982;9.232;2023-04-23T02:04:21;99472.78;;;14.65;100.00
21203;BME280;10759;51.982;9.232;2023-04-23T02:06:50;99466.22;;;14.42;100.00
21203;BME280;10759;51.982;9.232;2023-04-23T02:09:18;99482.91;;;14.61;100.00
21203;BME280;10759;51.982;9.232;2023-04-23T02:11:46;99476.38;;;14.51;100.00
21203;BME280;10759;51.982;9.232;2023-04-23T02:14:16;99455.72;;;14.64;100.00
21203;BME280;10759;51.982;9.232;2023-04-23T02:16:46;99474.94;;;14.72;100.00
21203;BME280;10759;51.982;9.232;2023-04-23T02:19:14;99433.41;;;14.22;100.00
21203;BME280;10759;51.982;9.232;2023-04-23T02:21:42;99456.91;;;14.20;100.00
21203;BME280;10759;51.982;9.232;2023-04-23T02:24:11;99482.78;;;14.23;100.00
21203;BME280;10759;51.982;9.232;2023-04-23T02:26:39;99488.28;;;14.21;100.00
21203;BME280;10759;51.982;9.232;2023-04-23T02:29:06;99487.38;;;14.08;100.00
21203;BME280;10759;51.982;9.232;2023-04-23T02:31:36;99468.53;;;14.08;100.00
21203;BME280;10759;51.982;9.232;2023-04-23T02:34:04;99488.81;;;14.26;100.00
21203;BME280;10759;51.982;9.232;2023-04-23T02:36:31;99484.72;;;14.21;100.00
21203;BME280;10759;51.982;9.232;2023-04-23T02:38:59;99473.84;;;13.95;100.00
21203;BME280;10759;51.982;9.232;2023-04-23T02:41:27;99491.78;;;14.09;100.00
21203;BME280;10759;51.982;9.232;2023-04-23T02:43:55;99487.94;;;14.13;100.00
21203;BME280;10759;51.982;9.232;2023-04-23T02:46:23;99493.50;;;14.10;100.00
21203;BME280;10759;51.982;9.232;2023-04-23T02:48:52;99490.25;;;14.05;100.00
21203;BME280;10759;51.982;9.232;2023-04-23T02:51:20;99493.72;;;14.07;100.00
21203;BME280;10759;51.982;9.232;2023-04-23T02:53:48;99501.19;;;14.16;100.00
21203;BME280;10759;51.982;9.232;2023-04-23T02:56:17;99493.56;;;13.95;100.00
21203;BME280;10759;51.982;9.232;2023-04-23T02:58:45;99500.69;;;13.96;100.00
21203;BME280;10759;51.982;9.232;2023-04-23T03:01:13;99491.44;;;14.01;100.00
21203;BME280;10759;51.982;9.232;2023-04-23T03:03:41;99499.06;;;13.94;100.00
21203;BME280;10759;51.982;9.232;2023-04-23T03:06:11;99497.81;;;13.85;100.00
21203;BME280;10759;51.982;9.232;2023-04-23T03:08:39;99514.53;;;13.90;100.00
21203;BME280;10759;51.982;9.232;2023-04-23T03:11:07;99508.41;;;13.88;100.00
21203;BME280;10759;51.982;9.232;2023-04-23T03:13:35;99526.88;;;13.80;100.00
21203;BME280;10759;51.982;9.232;2023-04-23T03:16:03;99522.47;;;13.65;100.00
21203;BME280;10759;51.982;9.232;2023-04-23T03:18:31;99519.41;;;13.71;99.28
21203;BME280;10759;51.982;9.232;2023-04-23T03:20:58;99529.41;;;13.69;99.25
21203;BME280;10759;51.982;9.232;2023-04-23T03:23:28;99528.63;;;13.67;98.61
21203;BME280;10759;51.982;9.232;2023-04-23T03:25:56;99521.50;;;13.66;98.48
21203;BME280;10759;51.982;9.232;2023-04-23T03:28:24;99536.13;;;13.62;97.82
21203;BME280;10759;51.982;9.232;2023-04-23T03:30:52;99538.44;;;13.68;98.07
21203;BME280;10759;51.982;9.232;2023-04-23T03:33:20;99534.88;;;13.67;99.02
21203;BME280;10759;51.982;9.232;2023-04-23T03:35:48;99517.00;;;13.23;99.32
21203;BME280;10759;51.982;9.232;2023-04-23T03:38:20;99528.47;;;13.27;99.04
21203;BME280;10759;51.982;9.232;2023-04-23T03:40:52;99496.44;;;13.08;99.89
21203;BME280;10759;51.982;9.232;2023-04-23T03:43:20;99537.00;;;13.34;99.64
21203;BME280;10759;51.982;9.232;2023-04-23T03:46:03;99522.13;;;13.28;99.12
21203;BME280;10759;51.982;9.232;2023-04-23T03:48:38;99537.78;;;13.36;99.40
21203;BME280;10759;51.982;9.232;2023-04-23T03:51:11;99541.19;;;13.23;99.52
21203;BME280;10759;51.982;9.232;2023-04-23T03:53:48;99542.50;;;13.46;97.37
21203;BME280;10759;51.982;9.232;2023-04-23T03:56:29;99546.38;;;13.26;97.76
21203;BME280;10759;51.982;9.232;2023-04-23T03:59:15;99543.44;;;13.31;98.18
21203;BME280;10759;51.982;9.232;2023-04-23T04:01:45;99540.03;;;13.13;100.00
21203;BME280;10759;51.982;9.232;2023-04-23T04:04:14;99528.34;;;13.28;97.87
21203;BME280;10759;51.982;9.232;2023-04-23T04:06:42;99547.09;;;13.30;97.81
21203;BME280;10759;51.982;9.232;2023-04-23T04:09:11;99550.25;;;13.22;99.41
21203;BME280;10759;51.982;9.232;2023-04-23T04:11:40;99555.72;;;13.21;99.20
21203;BME280;10759;51.982;9.232;2023-04-23T04:14:08;99514.50;;;13.06;98.76
21203;BME280;10759;51.982;9.232;2023-04-23T04:16:35;99498.63;;;13.01;98.49
21203;BME280;10759;51.982;9.232;2023-04-23T04:19:03;99562.28;;;13.31;98.34
21203;BME280;10759;51.982;9.232;2023-04-23T04:21:31;99561.94;;;13.21;99.11
21203;BME280;10759;51.982;9.232;2023-04-23T04:24:00;99557.47;;;13.22;98.98
21203;BME280;10759;51.982;9.232;2023-04-23T04:26:28;99546.97;;;13.17;97.96
21203;BME280;10759;51.982;9.232;2023-04-23T04:28:59;99558.97;;;13.11;100.00
21203;BME280;10759;51.982;9.232;2023-04-23T04:31:27;99554.31;;;13.29;98.07
21203;BME280;10759;51.982;9.232;2023-04-23T04:33:56;99539.75;;;13.03;97.62
21203;BME280;10759;51.982;9.232;2023-04-23T04:36:24;99571.28;;;13.16;97.90
21203;BME280;10759;51.982;9.232;2023-04-23T04:38:53;99558.50;;;13.05;99.04
21203;BME280;10759;51.982;9.232;2023-04-23T04:41:24;99559.38;;;13.20;98.56
21203;BME280;10759;51.982;9.232;2023-04-23T04:43:53;99538.13;;;13.15;97.77
21203;BME280;10759;51.982;9.232;2023-04-23T04:46:23;99554.16;;;13.02;96.92
21203;BME280;10759;51.982;9.232;2023-04-23T04:48:54;99559.34;;;13.05;97.01
21203;BME280;10759;51.982;9.232;2023-04-23T04:51:22;99572.22;;;13.00;97.56
21203;BME280;10759;51.982;9.232;2023-04-23T04:53:50;99563.00;;;13.04;97.21
21203;BME280;10759;51.982;9.232;2023-04-23T04:56:18;99570.09;;;13.05;96.80
21203;BME280;10759;51.982;9.232;2023-04-23T04:58:47;99569.94;;;13.23;97.80
21203;BME280;10759;51.982;9.232;2023-04-23T05:01:15;99571.28;;;13.16;95.84
21203;BME280;10759;51.982;9.232;2023-04-23T05:03:45;99579.81;;;13.08;95.93
21203;BME280;10759;51.982;9.232;2023-04-23T05:06:13;99575.69;;;13.02;93.92
21203;BME280;10759;51.982;9.232;2023-04-23T05:08:41;99533.09;;;12.80;94.20
21203;BME280;10759;51.982;9.232;2023-04-23T05:11:13;99566.34;;;12.94;93.51
21203;BME280;10759;51.982;9.232;2023-04-23T05:13:42;99560.09;;;12.93;94.00
21203;BME280;10759;51.982;9.232;2023-04-23T05:16:10;99564.13;;;12.86;94.11
21203;BME280;10759;51.982;9.232;2023-04-23T05:18:38;99577.97;;;13.08;92.36
21203;BME280;10759;51.982;9.232;2023-04-23T05:21:09;99577.38;;;12.59;93.58
21203;BME280;10759;51.982;9.232;2023-04-23T05:23:36;99540.09;;;12.53;93.75
21203;BME280;10759;51.982;9.232;2023-04-23T05:26:04;99532.16;;;12.35;94.51
21203;BME280;10759;51.982;9.232;2023-04-23T05:28:32;99536.78;;;12.63;93.34
21203;BME280;10759;51.982;9.232;2023-04-23T05:31:00;99571.00;;;12.76;95.14
21203;BME280;10759;51.982;9.232;2023-04-23T05:33:28;99574.88;;;12.86;93.97
21203;BME280;10759;51.982;9.232;2023-04-23T05:36:13;99582.28;;;12.97;93.57
21203;BME280;10759;51.982;9.232;2023-04-23T05:38:42;99579.84;;;12.78;96.34
21203;BME280;10759;51.982;9.232;2023-04-23T05:41:10;99545.31;;;12.56;96.07
21203;BME280;10759;51.982;9.232;2023-04-23T05:43:38;99574.00;;;12.85;95.05
21203;BME280;10759;51.982;9.232;2023-04-23T05:46:05;99573.88;;;12.73;95.05
21203;BME280;10759;51.982;9.232;2023-04-23T05:48:34;99576.38;;;12.45;96.24
21203;BME280;10759;51.982;9.232;2023-04-23T05:51:01;99573.72;;;12.60;97.76
21203;BME280;10759;51.982;9.232;2023-04-23T05:53:31;99576.97;;;12.81;97.01
21203;BME280;10759;51.982;9.232;2023-04-23T05:55:58;99577.03;;;12.49;97.21
21203;BME280;10759;51.982;9.232;2023-04-23T05:58:26;99561.91;;;12.62;97.70
21203;BME280;10759;51.982;9.232;2023-04-23T06:00:54;99577.34;;;12.89;97.65
21203;BME280;10759;51.982;9.232;2023-04-23T06:03:23;99575.31;;;12.78;97.74
21203;BME280;10759;51.982;9.232;2023-04-23T06:05:52;99578.22;;;12.59;98.83
21203;BME280;10759;51.982;9.232;2023-04-23T06:08:20;99577.78;;;12.97;97.92
21203;BME280;10759;51.982;9.232;2023-04-23T06:10:52;99580.00;;;13.05;98.07
21203;BME280;10759;51.982;9.232;2023-04-23T06:13:21;99585.56;;;13.32;96.80
21203;BME280;10759;51.982;9.232;2023-04-23T06:15:49;99569.22;;;13.35;96.09
21203;BME280;10759;51.982;9.232;2023-04-23T06:18:17;99573.44;;;13.39;95.35
21203;BME280;10759;51.982;9.232;2023-04-23T06:20:46;99588.13;;;13.48;94.99
21203;BME280;10759;51.982;9.232;2023-04-23T06:23:14;99584.97;;;13.27;94.75
21203;BME280;10759;51.982;9.232;2023-04-23T06:25:42;99578.91;;;13.52;94.71
21203;BME280;10759;51.982;9.232;2023-04-23T06:28:11;99582.38;;;13.68;94.29
21203;BME280;10759;51.982;9.232;2023-04-23T06:30:59;99584.03;;;13.57;95.89
21203;BME280;10759;51.982;9.232;2023-04-23T06:33:28;99587.28;;;13.47;93.58
21203;BME280;10759;51.982;9.232;2023-04-23T06:35:56;99571.41;;;13.71;96.20
21203;BME280;10759;51.982;9.232;2023-04-23T06:38:24;99587.44;;;14.02;94.15
21203;BME280;10759;51.982;9.232;2023-04-23T06:40:52;99542.66;;;13.58;93.92
21203;BME280;10759;51.982;9.232;2023-04-23T06:43:21;99576.13;;;13.39;94.87
21203;BME280;10759;51.982;9.232;2023-04-23T06:46:12;99583.53;;;13.50;94.14
21203;BME280;10759;51.982;9.232;2023-04-23T06:48:40;99554.50;;;13.69;93.17
21203;BME280;10759;51.982;9.232;2023-04-23T06:51:08;99582.81;;;14.04;93.29
21203;BME280;10759;51.982;9.232;2023-04-23T06:53:36;99579.09;;;14.19;91.86
21203;BME280;10759;51.982;9.232;2023-04-23T06:56:04;99552.16;;;14.19;94.08
21203;BME280;10759;51.982;9.232;2023-04-23T06:58:34;99566.72;;;14.44;93.22
21203;BME280;10759;51.982;9.232;2023-04-23T07:01:11;99565.91;;;14.56;88.89
21203;BME280;10759;51.982;9.232;2023-04-23T07:03:40;99570.50;;;14.81;87.72
21203;BME280;10759;51.982;9.232;2023-04-23T07:06:10;99568.25;;;14.88;88.92
21203;BME280;10759;51.982;9.232;2023-04-23T07:08:38;99539.34;;;14.77;85.13
21203;BME280;10759;51.982;9.232;2023-04-23T07:11:06;99538.13;;;14.68;85.59
21203;BME280;10759;51.982;9.232;2023-04-23T07:13:37;99567.47;;;14.73;85.64
21203;BME280;10759;51.982;9.232;2023-04-23T07:16:05;99535.28;;;14.97;84.07
21203;BME280;10759;51.982;9.232;2023-04-23T07:18:34;99569.69;;;15.06;83.82
21203;BME280;10759;51.982;9.232;2023-04-23T07:21:01;99569.25;;;15.38;82.68
21203;BME280;10759;51.982;9.232;2023-04-23T07:23:29;99566.69;;;15.36;77.38
21203;BME280;10759;51.982;9.232;2023-04-23T07:25:57;99566.91;;;15.46;81.34
21203;BME280;10759;51.982;9.232;2023-04-23T07:28:25;99562.69;;;15.80;74.21
21203;BME280;10759;51.982;9.232;2023-04-23T07:30:55;99557.09;;;15.71;74.57
21203;BME280;10759;51.982;9.232;2023-04-23T07:33:23;99520.22;;;15.70;76.59
21203;BME280;10759;51.982;9.232;2023-04-23T07:35:51;99547.56;;;16.15;77.04
21203;BME280;10759;51.982;9.232;2023-04-23T07:38:19;99531.34;;;16.15;73.73
21203;BME280;10759;51.982;9.232;2023-04-23T07:40:47;99503.06;;;16.07;68.85
21203;BME280;10759;51.982;9.232;2023-04-23T07:43:15;99549.31;;;16.51;64.52
21203;BME280;10759;51.982;9.232;2023-04-23T07:45:43;99541.34;;;16.49;62.44
21203;BME280;10759;51.982;9.232;2023-04-23T07:48:12;99540.53;;;16.36;70.21
21203;BME280;10759;51.982;9.232;2023-04-23T07:50:41;99515.94;;;16.28;65.07
21203;BME280;10759;51.982;9.232;2023-04-23T07:53:08;99526.81;;;16.39;63.97
21203;BME280;10759;51.982;9.232;2023-04-23T07:55:36;99509.91;;;16.60;61.69
21203;BME280;10759;51.982;9.232;2023-04-23T07:58:04;99515.78;;;16.53;57.50
21203;BME280;10759;51.982;9.232;2023-04-23T08:00:32;99535.56;;;16.78;62.52
21203;BME280;10759;51.982;9.232;2023-04-23T08:03:00;99521.13;;;17.02;58.78
21203;BME280;10759;51.982;9.232;2023-04-23T08:05:29;99512.91;;;17.03;54.82
21203;BME280;10759;51.982;9.232;2023-04-23T08:07:57;99521.88;;;17.15;61.38
21203;BME280;10759;51.982;9.232;2023-04-23T08:10:25;99519.59;;;17.33;58.64
21203;BME280;10759;51.982;9.232;2023-04-23T08:12:53;99519.59;;;17.33;60.12
21203;BME280;10759;51.982;9.232;2023-04-23T08:15:21;99512.19;;;17.35;60.89
21203;BME280;10759;51.982;9.232;2023-04-23T08:17:49;99498.63;;;17.01;61.56
21203;BME280;10759;51.982;9.232;2023-04-23T08:20:17;99510.31;;;17.02;60.43
21203;BME280;10759;51.982;9.232;2023-04-23T08:22:46;99514.25;;;17.20;60.09
21203;BME280;10759;51.982;9.232;2023-04-23T08:25:15;99426.66;;;16.87;59.35
21203;BME280;10759;51.982;9.232;2023-04-23T08:27:43;99505.69;;;17.60;59.65
21203;BME280;10759;51.982;9.232;2023-04-23T08:30:12;99502.22;;;17.80;56.62
21203;BME280;10759;51.982;9.232;2023-04-23T08:32:39;99441.84;;;17.78;58.34
21203;BME280;10759;51.982;9.232;2023-04-23T08:35:08;99494.56;;;17.97;53.32
21203;BME280;10759;51.982;9.232;2023-04-23T08:37:36;99492.44;;;18.12;56.47
21203;BME280;10759;51.982;9.232;2023-04-23T08:40:08;99482.16;;;18.27;53.41
21203;BME280;10759;51.982;9.232;2023-04-23T08:42:37;99478.88;;;18.44;57.28
21203;BME280;10759;51.982;9.232;2023-04-23T08:45:09;99467.50;;;18.18;51.96
21203;BME280;10759;51.982;9.232;2023-04-23T08:47:38;99420.69;;;17.84;52.96
21203;BME280;10759;51.982;9.232;2023-04-23T08:50:09;99486.75;;;18.47;52.10
21203;BME280;10759;51.982;9.232;2023-04-23T08:52:40;99484.63;;;18.51;52.67
21203;BME280;10759;51.982;9.232;2023-04-23T08:55:10;99456.75;;;18.28;51.91
21203;BME280;10759;51.982;9.232;2023-04-23T08:57:40;99470.75;;;18.44;52.34
21203;BME280;10759;51.982;9.232;2023-04-23T09:00:10;99489.88;;;18.63;54.83
21203;BME280;10759;51.982;9.232;2023-04-23T09:02:40;99481.53;;;18.55;53.06
21203;BME280;10759;51.982;9.232;2023-04-23T09:05:08;99463.06;;;18.70;56.41
21203;BME280;10759;51.982;9.232;2023-04-23T09:07:36;99491.50;;;18.87;55.51
21203;BME280;10759;51.982;9.232;2023-04-23T09:10:05;99408.59;;;18.41;54.81
21203;BME280;10759;51.982;9.232;2023-04-23T09:12:36;99491.97;;;18.92;50.55
21203;BME280;10759;51.982;9.232;2023-04-23T09:15:05;99486.19;;;19.06;57.41
21203;BME280;10759;51.982;9.232;2023-04-23T09:17:38;99402.19;;;18.63;55.73
21203;BME280;10759;51.982;9.232;2023-04-23T09:20:08;99443.50;;;18.87;50.09
21203;BME280;10759;51.982;9.232;2023-04-23T09:22:40;99361.25;;;18.45;51.27
21203;BME280;10759;51.982;9.232;2023-04-23T09:25:13;99478.06;;;19.37;53.39
21203;BME280;10759;51.982;9.232;2023-04-23T09:27:43;99479.25;;;19.44;51.64
21203;BME280;10759;51.982;9.232;2023-04-23T09:30:12;99465.44;;;19.26;53.56
21203;BME280;10759;51.982;9.232;2023-04-23T09:32:41;99450.63;;;19.09;55.19
21203;BME280;10759;51.982;9.232;2023-04-23T09:35:13;99458.28;;;19.25;51.27
21203;BME280;10759;51.982;9.232;2023-04-23T09:37:42;99462.03;;;19.34;53.87
21203;BME280;10759;51.982;9.232;2023-04-23T09:40:15;99457.44;;;19.25;51.26
21203;BME280;10759;51.982;9.232;2023-04-23T09:42:48;99418.69;;;19.23;57.32
21203;BME280;10759;51.982;9.232;2023-04-23T09:45:18;99448.34;;;19.45;52.18
21203;BME280;10759;51.982;9.232;2023-04-23T09:47:50;99413.75;;;19.38;51.84
21203;BME280;10759;51.982;9.232;2023-04-23T09:50:18;99424.22;;;19.52;49.69
21203;BME280;10759;51.982;9.232;2023-04-23T09:52:53;99439.84;;;19.60;52.42
21203;BME280;10759;51.982;9.232;2023-04-23T09:55:27;99397.75;;;19.44;55.99
21203;BME280;10759;51.982;9.232;2023-04-23T09:57:58;99419.69;;;19.62;51.74
21203;BME280;10759;51.982;9.232;2023-04-23T10:00:32;99434.31;;;19.81;52.27
21203;BME280;10759;51.982;9.232;2023-04-23T10:03:00;99417.91;;;20.02;48.90
21203;BME280;10759;51.982;9.232;2023-04-23T10:05:28;99411.47;;;20.22;52.64
21203;BME280;10759;51.982;9.232;2023-04-23T10:08:15;99404.16;;;20.03;49.94
21203;BME280;10759;51.982;9.232;2023-04-23T10:10:46;99271.19;;;19.42;48.71
21203;BME280;10759;51.982;9.232;2023-04-23T10:13:33;99442.41;;;20.50;48.13
21203;BME280;10759;51.982;9.232;2023-04-23T10:16:03;99436.41;;;20.56;46.61
21203;BME280;10759;51.982;9.232;2023-04-23T10:18:49;99408.88;;;20.30;48.12
21203;BME280;10759;51.982;9.232;2023-04-23T10:21:19;99426.06;;;20.11;47.12
21203;BME280;10759;51.982;9.232;2023-04-23T10:23:49;99435.34;;;19.89;47.72
21203;BME280;10759;51.982;9.232;2023-04-23T10:26:19;99435.94;;;20.03;47.33
21203;BME280;10759;51.982;9.232;2023-04-23T10:28:53;99431.75;;;19.69;47.61
21203;BME280;10759;51.982;9.232;2023-04-23T10:31:21;99435.78;;;19.44;48.49
21203;BME280;10759;51.982;9.232;2023-04-23T10:33:50;99434.47;;;19.69;46.91
21203;BME280;10759;51.982;9.232;2023-04-23T10:36:25;99441.75;;;19.79;47.40
21203;BME280;10759;51.982;9.232;2023-04-23T10:38:54;99437.84;;;19.62;47.00
21203;BME280;10759;51.982;9.232;2023-04-23T10:41:32;99426.50;;;19.47;47.51
21203;BME280;10759;51.982;9.232;2023-04-23T10:44:03;99436.34;;;19.48;50.38
21203;BME280;10759;51.982;9.232;2023-04-23T10:46:33;99427.59;;;19.35;48.19
21203;BME280;10759;51.982;9.232;2023-04-23T10:49:06;99429.19;;;19.37;51.30
21203;BME280;10759;51.982;9.232;2023-04-23T10:51:34;99420.00;;;19.28;49.53
21203;BME280;10759;51.982;9.232;2023-04-23T10:54:07;99426.72;;;19.34;49.78
21203;BME280;10759;51.982;9.232;2023-04-23T10:56:37;99321.72;;;19.04;49.62
21203;BME280;10759;51.982;9.232;2023-04-23T10:59:07;99418.72;;;19.73;52.85
21203;BME280;10759;51.982;9.232;2023-04-23T11:01:35;99417.59;;;19.95;49.51
21203;BME280;10759;51.982;9.232;2023-04-23T11:04:20;99417.75;;;19.93;50.31
21203;BME280;10759;51.982;9.232;2023-04-23T11:06:51;99409.00;;;19.80;52.07
21203;BME280;10759;51.982;9.232;2023-04-23T11:09:44;99409.38;;;19.66;49.02
21203;BME280;10759;51.982;9.232;2023-04-23T11:12:29;99383.59;;;19.50;50.10
21203;BME280;10759;51.982;9.232;2023-04-23T11:14:59;99406.38;;;19.59;48.39
21203;BME280;10759;51.982;9.232;2023-04-23T11:17:59;99409.91;;;19.50;48.00
21203;BME280;10759;51.982;9.232;2023-04-23T11:20:28;99405.00;;;19.75;50.44
21203;BME280;10759;51.982;9.232;2023-04-23T11:22:56;99363.81;;;19.99;49.16
21203;BME280;10759;51.982;9.232;2023-04-23T11:25:25;99405.16;;;20.51;46.06
21203;BME280;10759;51.982;9.232;2023-04-23T11:27:55;99391.84;;;20.48;45.66
21203;BME280;10759;51.982;9.232;2023-04-23T11:30:27;99396.28;;;20.49;45.45
21203;BME280;10759;51.982;9.232;2023-04-23T11:32:56;99382.84;;;20.18;45.92
21203;BME280;10759;51.982;9.232;2023-04-23T11:35:26;99374.97;;;20.15;47.01
21203;BME280;10759;51.982;9.232;2023-04-23T11:37:55;99376.69;;;19.97;49.08
21203;BME280;10759;51.982;9.232;2023-04-23T11:40:23;99379.00;;;20.21;53.79
21203;BME280;10759;51.982;9.232;2023-04-23T11:42:52;99371.81;;;20.20;52.36
21203;BME280;10759;51.982;9.232;2023-04-23T11:45:22;99372.97;;;19.98;55.94
21203;BME280;10759;51.982;9.232;2023-04-23T11:47:55;99371.25;;;19.87;53.99
21203;BME280;10759;51.982;9.232;2023-04-23T11:50:25;99371.69;;;19.82;54.07
21203;BME280;10759;51.982;9.232;2023-04-23T11:52:53;99356.78;;;20.06;57.18
21203;BME280;10759;51.982;9.232;2023-04-23T11:55:22;99362.63;;;20.40;61.48
21203;BME280;10759;51.982;9.232;2023-04-23T11:57:51;99367.50;;;20.36;53.71
21203;BME280;10759;51.982;9.232;2023-04-23T12:00:20;99373.25;;;20.14;50.89
21203;BME280;10759;51.982;9.232;2023-04-23T12:02:49;99379.25;;;19.88;53.93
21203;BME280;10759;51.982;9.232;2023-04-23T12:05:20;99357.75;;;19.66;54.97
21203;BME280;10759;51.982;9.232;2023-04-23T12:07:49;99372.00;;;19.48;55.29
21203;BME280;10759;51.982;9.232;2023-04-23T12:10:19;99391.94;;;19.18;57.07
21203;BME280;10759;51.982;9.232;2023-04-23T12:12:51;99413.53;;;18.89;62.96
21203;BME280;10759;51.982;9.232;2023-04-23T12:15:19;99397.22;;;18.05;72.88
21203;BME280;10759;51.982;9.232;2023-04-23T12:17:48;99418.47;;;17.66;77.96
21203;BME280;10759;51.982;9.232;2023-04-23T12:20:21;99438.13;;;17.13;81.76
21203;BME280;10759;51.982;9.232;2023-04-23T12:22:49;99427.88;;;16.94;87.13
21203;BME280;10759;51.982;9.232;2023-04-23T12:25:21;99422.06;;;16.30;90.36
21203;BME280;10759;51.982;9.232;2023-04-23T12:27:48;99412.03;;;16.08;95.94
21203;BME280;10759;51.982;9.232;2023-04-23T12:30:16;99418.56;;;15.68;95.93
21203;BME280;10759;51.982;9.232;2023-04-23T12:32:45;99446.31;;;15.83;100.00
21203;BME280;10759;51.982;9.232;2023-04-23T12:35:12;99466.66;;;15.63;92.96
21203;BME280;10759;51.982;9.232;2023-04-23T12:37:42;99453.47;;;15.59;92.25
21203;BME280;10759;51.982;9.232;2023-04-23T12:40:11;99458.41;;;15.28;95.15
21203;BME280;10759;51.982;9.232;2023-04-23T12:42:38;99468.16;;;15.05;92.07
21203;BME280;10759;51.982;9.232;2023-04-23T12:45:08;99400.06;;;14.76;92.60
21203;BME280;10759;51.982;9.232;2023-04-23T12:47:36;99439.44;;;15.17;92.70
21203;BME280;10759;51.982;9.232;2023-04-23T12:50:05;99433.69;;;15.34;92.27
21203;BME280;10759;51.982;9.232;2023-04-23T12:52:33;99410.84;;;15.51;91.94
21203;BME280;10759;51.982;9.232;2023-04-23T12:55:03;99407.47;;;15.73;91.57
21203;BME280;10759;51.982;9.232;2023-04-23T12:57:31;99422.56;;;16.35;87.26
21203;BME280;10759;51.982;9.232;2023-04-23T12:59:59;99419.47;;;16.75;85.30
21203;BME280;10759;51.982;9.232;2023-04-23T13:02:27;99416.69;;;16.88;83.03
21203;BME280;10759;51.982;9.232;2023-04-23T13:04:56;99386.09;;;16.99;83.09
21203;BME280;10759;51.982;9.232;2023-04-23T13:07:26;99400.72;;;17.19;80.83
21203;BME280;10759;51.982;9.232;2023-04-23T13:09:54;99389.25;;;17.26;78.86